Raymond, Georgia
Current Conditions -  °F | °C
As of 9:15 AM on Saturday 01 Nov 2014 (Local Time) from KCCO Reporting Station
Overcast Overcast  
Wind Chill: 30°   Ceiling: 3300
Heat Index: 41°   Visibility: 10mi
Dew Point: 30°   Wind: 24mph
Humidity: 65%   Direction: 350°N
Pressure: 30.02"   Gusts: 41mph
Location:  33.3877°N, 84.8596°W
Report Text: KCCO 011315Z AUTO 35021G36KT 10SM OVC033 05/M01 A3002 RMK AO2 T00481012
Loading
Personal Weather Stations






























Interactive Weather Map New forecast layout! Learn more

10-Day Weather Forecast

Advertisements
Track Severe Weather on mobile